sensor_id;sensor_type;location;lat;lon;timestamp;P1;durP1;ratioP1;P2;durP2;ratioP2
44476;SDS011;30180;44.788;10.366;2023-08-08T00:02:25;1.98;;;0.70;;
44476;SDS011;30180;44.788;10.366;2023-08-08T00:04:54;1.07;;;0.40;;
44476;SDS011;30180;44.788;10.366;2023-08-08T00:07:22;1.05;;;0.57;;
44476;SDS011;30180;44.788;10.366;2023-08-08T00:09:50;0.95;;;0.57;;
44476;SDS011;30180;44.788;10.366;2023-08-08T00:12:18;1.80;;;0.52;;
44476;SDS011;30180;44.788;10.366;2023-08-08T00:14:46;1.23;;;0.50;;
44476;SDS011;30180;44.788;10.366;2023-08-08T00:17:15;1.85;;;0.50;;
44476;SDS011;30180;44.788;10.366;2023-08-08T00:19:45;1.50;;;0.60;;
44476;SDS011;30180;44.788;10.366;2023-08-08T00:22:13;1.38;;;0.70;;
44476;SDS011;30180;44.788;10.366;2023-08-08T00:24:41;1.30;;;0.60;;
44476;SDS011;30180;44.788;10.366;2023-08-08T00:27:09;1.05;;;0.52;;
44476;SDS011;30180;44.788;10.366;2023-08-08T00:29:38;1.67;;;0.40;;
44476;SDS011;30180;44.788;10.366;2023-08-08T00:32:06;1.00;;;0.52;;
44476;SDS011;30180;44.788;10.366;2023-08-08T00:34:34;1.13;;;0.50;;
44476;SDS011;30180;44.788;10.366;2023-08-08T00:37:04;1.08;;;0.50;;
44476;SDS011;30180;44.788;10.366;2023-08-08T00:39:32;0.93;;;0.60;;
44476;SDS011;30180;44.788;10.366;2023-08-08T00:42:01;1.60;;;0.70;;
44476;SDS011;30180;44.788;10.366;2023-08-08T00:44:29;1.27;;;0.70;;
44476;SDS011;30180;44.788;10.366;2023-08-08T00:46:58;1.70;;;0.50;;
44476;SDS011;30180;44.788;10.366;2023-08-08T00:49:26;2.28;;;0.57;;
44476;SDS011;30180;44.788;10.366;2023-08-08T00:51:54;2.15;;;0.50;;
44476;SDS011;30180;44.788;10.366;2023-08-08T00:54:25;1.63;;;0.55;;
44476;SDS011;30180;44.788;10.366;2023-08-08T00:56:54;0.47;;;0.30;;
44476;SDS011;30180;44.788;10.366;2023-08-08T00:59:22;2.08;;;0.52;;
44476;SDS011;30180;44.788;10.366;2023-08-08T01:01:51;2.22;;;0.60;;
44476;SDS011;30180;44.788;10.366;2023-08-08T01:04:20;1.17;;;0.45;;
44476;SDS011;30180;44.788;10.366;2023-08-08T01:06:51;1.50;;;0.60;;
44476;SDS011;30180;44.788;10.366;2023-08-08T01:09:28;1.73;;;0.60;;
44476;SDS011;30180;44.788;10.366;2023-08-08T01:12:00;0.60;;;0.40;;
44476;SDS011;30180;44.788;10.366;2023-08-08T01:14:30;1.15;;;0.60;;
44476;SDS011;30180;44.788;10.366;2023-08-08T01:17:01;0.80;;;0.50;;
44476;SDS011;30180;44.788;10.366;2023-08-08T01:19:30;1.83;;;0.60;;
44476;SDS011;30180;44.788;10.366;2023-08-08T01:22:01;1.63;;;0.60;;
44476;SDS011;30180;44.788;10.366;2023-08-08T01:24:33;0.82;;;0.60;;
44476;SDS011;30180;44.788;10.366;2023-08-08T01:27:04;1.15;;;0.60;;
44476;SDS011;30180;44.788;10.366;2023-08-08T01:29:33;1.20;;;0.50;;
44476;SDS011;30180;44.788;10.366;2023-08-08T01:32:02;0.73;;;0.47;;
44476;SDS011;30180;44.788;10.366;2023-08-08T01:34:30;0.68;;;0.47;;
44476;SDS011;30180;44.788;10.366;2023-08-08T01:36:59;1.33;;;0.60;;
44476;SDS011;30180;44.788;10.366;2023-08-08T01:39:34;1.23;;;0.63;;
44476;SDS011;30180;44.788;10.366;2023-08-08T01:42:04;1.35;;;0.63;;
44476;SDS011;30180;44.788;10.366;2023-08-08T01:44:34;1.38;;;0.68;;
44476;SDS011;30180;44.788;10.366;2023-08-08T01:47:03;1.33;;;0.70;;
44476;SDS011;30180;44.788;10.366;2023-08-08T01:49:32;1.45;;;0.65;;
44476;SDS011;30180;44.788;10.366;2023-08-08T01:52:00;1.00;;;0.60;;
44476;SDS011;30180;44.788;10.366;2023-08-08T01:54:28;1.45;;;0.60;;
44476;SDS011;30180;44.788;10.366;2023-08-08T01:56:58;1.25;;;0.68;;
44476;SDS011;30180;44.788;10.366;2023-08-08T01:59:26;1.85;;;0.70;;
44476;SDS011;30180;44.788;10.366;2023-08-08T02:01:54;2.08;;;0.40;;
44476;SDS011;30180;44.788;10.366;2023-08-08T02:04:23;1.00;;;0.63;;
44476;SDS011;30180;44.788;10.366;2023-08-08T02:06:51;1.48;;;0.63;;
44476;SDS011;30180;44.788;10.366;2023-08-08T02:09:20;0.70;;;0.40;;
44476;SDS011;30180;44.788;10.366;2023-08-08T02:11:48;0.90;;;0.40;;
44476;SDS011;30180;44.788;10.366;2023-08-08T02:14:18;1.45;;;0.50;;
44476;SDS011;30180;44.788;10.366;2023-08-08T02:16:47;0.95;;;0.63;;
44476;SDS011;30180;44.788;10.366;2023-08-08T02:19:15;1.52;;;0.70;;
44476;SDS011;30180;44.788;10.366;2023-08-08T02:21:43;0.93;;;0.47;;
44476;SDS011;30180;44.788;10.366;2023-08-08T02:24:12;1.13;;;0.52;;
44476;SDS011;30180;44.788;10.366;2023-08-08T02:26:40;0.90;;;0.50;;
44476;SDS011;30180;44.788;10.366;2023-08-08T02:29:08;0.95;;;0.60;;
44476;SDS011;30180;44.788;10.366;2023-08-08T02:31:38;0.85;;;0.40;;
44476;SDS011;30180;44.788;10.366;2023-08-08T02:34:06;1.08;;;0.60;;
44476;SDS011;30180;44.788;10.366;2023-08-08T02:36:34;1.23;;;0.60;;
44476;SDS011;30180;44.788;10.366;2023-08-08T02:39:03;1.67;;;0.52;;
44476;SDS011;30180;44.788;10.366;2023-08-08T02:41:31;1.75;;;0.43;;
44476;SDS011;30180;44.788;10.366;2023-08-08T02:43:59;1.48;;;0.50;;
44476;SDS011;30180;44.788;10.366;2023-08-08T02:46:27;1.05;;;0.50;;
44476;SDS011;30180;44.788;10.366;2023-08-08T02:48:57;2.35;;;0.70;;
44476;SDS011;30180;44.788;10.366;2023-08-08T02:51:25;0.70;;;0.43;;
44476;SDS011;30180;44.788;10.366;2023-08-08T02:53:53;1.10;;;0.68;;
44476;SDS011;30180;44.788;10.366;2023-08-08T02:56:21;1.13;;;0.68;;
44476;SDS011;30180;44.788;10.366;2023-08-08T02:58:50;0.70;;;0.50;;
44476;SDS011;30180;44.788;10.366;2023-08-08T03:01:18;2.72;;;0.73;;
44476;SDS011;30180;44.788;10.366;2023-08-08T03:03:48;1.10;;;0.65;;
44476;SDS011;30180;44.788;10.366;2023-08-08T03:06:17;1.85;;;0.73;;
44476;SDS011;30180;44.788;10.366;2023-08-08T03:08:46;0.95;;;0.45;;
44476;SDS011;30180;44.788;10.366;2023-08-08T03:11:14;2.65;;;0.70;;
44476;SDS011;30180;44.788;10.366;2023-08-08T03:13:42;0.68;;;0.40;;
44476;SDS011;30180;44.788;10.366;2023-08-08T03:16:10;1.50;;;0.60;;
44476;SDS011;30180;44.788;10.366;2023-08-08T03:18:39;2.58;;;0.70;;
44476;SDS011;30180;44.788;10.366;2023-08-08T03:21:08;1.15;;;0.50;;
44476;SDS011;30180;44.788;10.366;2023-08-08T03:23:37;1.35;;;0.85;;
44476;SDS011;30180;44.788;10.366;2023-08-08T03:26:06;0.77;;;0.40;;
44476;SDS011;30180;44.788;10.366;2023-08-08T03:28:34;1.20;;;0.70;;
44476;SDS011;30180;44.788;10.366;2023-08-08T03:31:02;1.52;;;0.65;;
44476;SDS011;30180;44.788;10.366;2023-08-08T03:33:30;1.25;;;0.60;;
44476;SDS011;30180;44.788;10.366;2023-08-08T03:35:59;2.10;;;0.50;;
44476;SDS011;30180;44.788;10.366;2023-08-08T03:38:27;1.20;;;0.60;;
44476;SDS011;30180;44.788;10.366;2023-08-08T03:40:57;1.45;;;0.73;;
44476;SDS011;30180;44.788;10.366;2023-08-08T03:43:25;2.20;;;0.52;;
44476;SDS011;30180;44.788;10.366;2023-08-08T03:45:58;0.95;;;0.55;;
44476;SDS011;30180;44.788;10.366;2023-08-08T03:48:26;1.08;;;0.55;;
44476;SDS011;30180;44.788;10.366;2023-08-08T03:50:54;1.50;;;0.60;;
44476;SDS011;30180;44.788;10.366;2023-08-08T03:53:23;1.00;;;0.50;;
44476;SDS011;30180;44.788;10.366;2023-08-08T03:55:51;1.77;;;0.45;;
44476;SDS011;30180;44.788;10.366;2023-08-08T03:58:21;1.58;;;0.70;;
44476;SDS011;30180;44.788;10.366;2023-08-08T04:00:49;0.82;;;0.47;;
44476;SDS011;30180;44.788;10.366;2023-08-08T04:03:18;1.00;;;0.50;;
44476;SDS011;30180;44.788;10.366;2023-08-08T04:05:46;1.45;;;0.50;;
44476;SDS011;30180;44.788;10.366;2023-08-08T04:08:14;1.35;;;0.80;;
44476;SDS011;30180;44.788;10.366;2023-08-08T04:10:46;1.38;;;0.57;;
44476;SDS011;30180;44.788;10.366;2023-08-08T04:13:14;1.00;;;0.50;;
44476;SDS011;30180;44.788;10.366;2023-08-08T04:15:44;2.05;;;0.57;;
44476;SDS011;30180;44.788;10.366;2023-08-08T04:18:12;1.17;;;0.68;;
44476;SDS011;30180;44.788;10.366;2023-08-08T04:20:41;3.15;;;0.60;;
44476;SDS011;30180;44.788;10.366;2023-08-08T04:23:09;1.10;;;0.55;;
44476;SDS011;30180;44.788;10.366;2023-08-08T04:25:37;2.65;;;0.80;;
44476;SDS011;30180;44.788;10.366;2023-08-08T04:28:06;1.02;;;0.60;;
44476;SDS011;30180;44.788;10.366;2023-08-08T04:30:34;1.15;;;0.70;;
44476;SDS011;30180;44.788;10.366;2023-08-08T04:33:04;1.20;;;0.60;;
44476;SDS011;30180;44.788;10.366;2023-08-08T04:35:32;2.40;;;0.60;;
44476;SDS011;30180;44.788;10.366;2023-08-08T04:38:01;2.22;;;0.73;;
44476;SDS011;30180;44.788;10.366;2023-08-08T04:40:29;2.25;;;0.80;;
44476;SDS011;30180;44.788;10.366;2023-08-08T04:42:57;1.77;;;0.60;;
44476;SDS011;30180;44.788;10.366;2023-08-08T04:45:25;1.85;;;0.73;;
44476;SDS011;30180;44.788;10.366;2023-08-08T04:47:55;2.47;;;0.70;;
44476;SDS011;30180;44.788;10.366;2023-08-08T04:50:25;2.95;;;0.75;;
44476;SDS011;30180;44.788;10.366;2023-08-08T04:52:54;1.23;;;0.57;;
44476;SDS011;30180;44.788;10.366;2023-08-08T04:55:23;0.82;;;0.45;;
44476;SDS011;30180;44.788;10.366;2023-08-08T04:57:51;1.23;;;0.77;;
44476;SDS011;30180;44.788;10.366;2023-08-08T05:00:19;2.15;;;0.52;;
44476;SDS011;30180;44.788;10.366;2023-08-08T05:02:47;1.38;;;0.60;;
44476;SDS011;30180;44.788;10.366;2023-08-08T05:05:16;1.08;;;0.50;;
44476;SDS011;30180;44.788;10.366;2023-08-08T05:07:46;1.17;;;0.60;;
44476;SDS011;30180;44.788;10.366;2023-08-08T05:10:14;1.23;;;0.75;;
44476;SDS011;30180;44.788;10.366;2023-08-08T05:12:42;2.53;;;0.63;;
44476;SDS011;30180;44.788;10.366;2023-08-08T05:15:11;2.20;;;0.57;;
44476;SDS011;30180;44.788;10.366;2023-08-08T05:17:39;2.55;;;0.80;;
44476;SDS011;30180;44.788;10.366;2023-08-08T05:20:08;1.27;;;0.63;;
44476;SDS011;30180;44.788;10.366;2023-08-08T05:22:37;2.30;;;0.70;;
44476;SDS011;30180;44.788;10.366;2023-08-08T05:25:07;2.53;;;0.60;;
44476;SDS011;30180;44.788;10.366;2023-08-08T05:30:04;2.35;;;0.70;;
44476;SDS011;30180;44.788;10.366;2023-08-08T05:32:34;1.92;;;0.52;;
44476;SDS011;30180;44.788;10.366;2023-08-08T05:35:02;3.85;;;0.65;;
44476;SDS011;30180;44.788;10.366;2023-08-08T05:37:31;2.08;;;0.90;;
44476;SDS011;30180;44.788;10.366;2023-08-08T05:40:00;3.72;;;0.70;;
44476;SDS011;30180;44.788;10.366;2023-08-08T05:42:30;2.78;;;0.80;;
44476;SDS011;30180;44.788;10.366;2023-08-08T05:44:59;2.38;;;0.70;;
44476;SDS011;30180;44.788;10.366;2023-08-08T05:47:27;2.13;;;0.70;;
44476;SDS011;30180;44.788;10.366;2023-08-08T05:49:56;2.60;;;0.70;;
44476;SDS011;30180;44.788;10.366;2023-08-08T05:52:24;3.22;;;0.70;;
44476;SDS011;30180;44.788;10.366;2023-08-08T05:54:53;2.53;;;1.05;;
44476;SDS011;30180;44.788;10.366;2023-08-08T05:57:22;1.27;;;0.60;;
44476;SDS011;30180;44.788;10.366;2023-08-08T05:59:59;1.13;;;0.77;;
44476;SDS011;30180;44.788;10.366;2023-08-08T06:02:35;1.30;;;0.60;;
44476;SDS011;30180;44.788;10.366;2023-08-08T06:05:07;1.45;;;0.70;;
44476;SDS011;30180;44.788;10.366;2023-08-08T06:07:41;3.50;;;0.98;;
44476;SDS011;30180;44.788;10.366;2023-08-08T06:10:10;1.30;;;0.70;;
44476;SDS011;30180;44.788;10.366;2023-08-08T06:12:38;1.38;;;0.70;;
44476;SDS011;30180;44.788;10.366;2023-08-08T06:15:08;6.22;;;0.88;;
44476;SDS011;30180;44.788;10.366;2023-08-08T06:17:37;4.53;;;1.00;;
44476;SDS011;30180;44.788;10.366;2023-08-08T06:20:06;1.83;;;0.68;;
44476;SDS011;30180;44.788;10.366;2023-08-08T06:22:36;3.40;;;0.70;;
44476;SDS011;30180;44.788;10.366;2023-08-08T06:25:05;2.78;;;0.68;;
44476;SDS011;30180;44.788;10.366;2023-08-08T06:27:34;3.72;;;0.68;;
44476;SDS011;30180;44.788;10.366;2023-08-08T06:30:04;4.40;;;0.90;;
44476;SDS011;30180;44.788;10.366;2023-08-08T06:32:36;1.63;;;0.70;;
44476;SDS011;30180;44.788;10.366;2023-08-08T06:35:04;2.10;;;0.60;;
44476;SDS011;30180;44.788;10.366;2023-08-08T06:37:35;2.67;;;0.80;;
44476;SDS011;30180;44.788;10.366;2023-08-08T06:40:04;6.15;;;1.13;;
44476;SDS011;30180;44.788;10.366;2023-08-08T06:42:34;2.60;;;1.10;;
44476;SDS011;30180;44.788;10.366;2023-08-08T06:45:03;6.20;;;0.82;;
44476;SDS011;30180;44.788;10.366;2023-08-08T06:47:32;2.35;;;1.00;;
44476;SDS011;30180;44.788;10.366;2023-08-08T06:50:02;2.70;;;1.13;;
44476;SDS011;30180;44.788;10.366;2023-08-08T06:54:59;4.13;;;1.20;;
44476;SDS011;30180;44.788;10.366;2023-08-08T06:57:29;3.28;;;1.17;;
44476;SDS011;30180;44.788;10.366;2023-08-08T07:00:01;2.55;;;0.90;;
44476;SDS011;30180;44.788;10.366;2023-08-08T07:04:59;2.63;;;1.00;;
44476;SDS011;30180;44.788;10.366;2023-08-08T07:07:30;3.50;;;0.80;;
44476;SDS011;30180;44.788;10.366;2023-08-08T07:09:59;3.67;;;1.00;;
44476;SDS011;30180;44.788;10.366;2023-08-08T07:12:28;2.22;;;0.90;;
44476;SDS011;30180;44.788;10.366;2023-08-08T07:14:56;4.35;;;1.00;;
44476;SDS011;30180;44.788;10.366;2023-08-08T07:17:24;4.78;;;1.70;;
44476;SDS011;30180;44.788;10.366;2023-08-08T07:19:53;5.05;;;1.48;;
44476;SDS011;30180;44.788;10.366;2023-08-08T07:22:24;4.40;;;1.40;;
44476;SDS011;30180;44.788;10.366;2023-08-08T07:24:52;4.70;;;1.50;;
44476;SDS011;30180;44.788;10.366;2023-08-08T07:27:21;3.70;;;1.42;;
44476;SDS011;30180;44.788;10.366;2023-08-08T07:29:49;2.53;;;1.35;;
44476;SDS011;30180;44.788;10.366;2023-08-08T07:32:17;2.72;;;1.40;;
44476;SDS011;30180;44.788;10.366;2023-08-08T07:34:45;5.15;;;1.60;;
44476;SDS011;30180;44.788;10.366;2023-08-08T07:37:14;2.47;;;1.33;;
44476;SDS011;30180;44.788;10.366;2023-08-08T07:39:44;5.72;;;1.33;;
44476;SDS011;30180;44.788;10.366;2023-08-08T07:42:12;5.60;;;1.40;;
44476;SDS011;30180;44.788;10.366;2023-08-08T07:44:40;2.67;;;1.42;;
44476;SDS011;30180;44.788;10.366;2023-08-08T07:47:09;3.85;;;1.38;;
44476;SDS011;30180;44.788;10.366;2023-08-08T07:49:39;2.50;;;1.27;;
44476;SDS011;30180;44.788;10.366;2023-08-08T07:52:07;2.65;;;1.15;;
44476;SDS011;30180;44.788;10.366;2023-08-08T07:54:35;3.10;;;1.40;;
44476;SDS011;30180;44.788;10.366;2023-08-08T07:57:05;5.45;;;1.50;;
44476;SDS011;30180;44.788;10.366;2023-08-08T07:59:33;2.57;;;1.17;;
44476;SDS011;30180;44.788;10.366;2023-08-08T08:02:02;6.55;;;1.70;;
44476;SDS011;30180;44.788;10.366;2023-08-08T08:04:32;6.95;;;2.00;;
44476;SDS011;30180;44.788;10.366;2023-08-08T08:07:00;3.30;;;1.40;;
44476;SDS011;30180;44.788;10.366;2023-08-08T08:09:28;3.97;;;1.40;;
44476;SDS011;30180;44.788;10.366;2023-08-08T08:11:57;3.20;;;1.63;;
44476;SDS011;30180;44.788;10.366;2023-08-08T08:14:27;3.72;;;1.60;;
44476;SDS011;30180;44.788;10.366;2023-08-08T08:16:55;6.18;;;2.20;;
44476;SDS011;30180;44.788;10.366;2023-08-08T08:19:23;3.92;;;1.70;;
44476;SDS011;30180;44.788;10.366;2023-08-08T08:21:52;4.20;;;2.05;;
44476;SDS011;30180;44.788;10.366;2023-08-08T08:24:20;4.45;;;2.10;;
44476;SDS011;30180;44.788;10.366;2023-08-08T08:26:49;3.85;;;1.90;;
44476;SDS011;30180;44.788;10.366;2023-08-08T08:29:18;4.50;;;1.85;;
44476;SDS011;30180;44.788;10.366;2023-08-08T08:31:48;5.40;;;2.17;;
44476;SDS011;30180;44.788;10.366;2023-08-08T08:34:16;3.30;;;1.80;;
44476;SDS011;30180;44.788;10.366;2023-08-08T08:36:44;5.70;;;1.73;;
44476;SDS011;30180;44.788;10.366;2023-08-08T08:39:14;4.07;;;1.95;;
44476;SDS011;30180;44.788;10.366;2023-08-08T08:41:42;7.05;;;2.53;;
44476;SDS011;30180;44.788;10.366;2023-08-08T08:44:16;5.05;;;2.22;;
44476;SDS011;30180;44.788;10.366;2023-08-08T08:46:44;5.63;;;2.28;;
44476;SDS011;30180;44.788;10.366;2023-08-08T08:49:16;4.63;;;2.58;;
44476;SDS011;30180;44.788;10.366;2023-08-08T08:51:47;4.10;;;2.35;;
44476;SDS011;30180;44.788;10.366;2023-08-08T08:54:15;5.05;;;2.38;;
44476;SDS011;30180;44.788;10.366;2023-08-08T08:56:45;4.80;;;2.53;;
44476;SDS011;30180;44.788;10.366;2023-08-08T08:59:13;10.00;;;3.38;;
44476;SDS011;30180;44.788;10.366;2023-08-08T09:01:41;5.97;;;3.40;;
44476;SDS011;30180;44.788;10.366;2023-08-08T09:04:11;7.07;;;4.53;;
44476;SDS011;30180;44.788;10.366;2023-08-08T09:06:43;8.38;;;5.07;;
44476;SDS011;30180;44.788;10.366;2023-08-08T09:09:12;9.30;;;5.32;;
44476;SDS011;30180;44.788;10.366;2023-08-08T09:11:43;12.07;;;6.32;;
44476;SDS011;30180;44.788;10.366;2023-08-08T09:14:16;10.35;;;5.03;;
44476;SDS011;30180;44.788;10.366;2023-08-08T09:16:45;8.45;;;4.15;;
44476;SDS011;30180;44.788;10.366;2023-08-08T09:19:16;5.85;;;3.45;;
44476;SDS011;30180;44.788;10.366;2023-08-08T09:21:45;6.05;;;3.58;;
44476;SDS011;30180;44.788;10.366;2023-08-08T09:24:14;5.28;;;2.88;;
44476;SDS011;30180;44.788;10.366;2023-08-08T09:26:43;7.70;;;2.67;;
44476;SDS011;30180;44.788;10.366;2023-08-08T09:29:12;5.05;;;2.58;;
44476;SDS011;30180;44.788;10.366;2023-08-08T09:31:41;6.00;;;2.80;;
44476;SDS011;30180;44.788;10.366;2023-08-08T09:34:10;5.47;;;2.60;;
44476;SDS011;30180;44.788;10.366;2023-08-08T09:36:40;6.05;;;2.58;;
44476;SDS011;30180;44.788;10.366;2023-08-08T09:39:08;7.65;;;3.20;;
44476;SDS011;30180;44.788;10.366;2023-08-08T09:41:37;5.13;;;2.70;;
44476;SDS011;30180;44.788;10.366;2023-08-08T09:44:07;7.97;;;2.70;;
44476;SDS011;30180;44.788;10.366;2023-08-08T09:46:36;5.03;;;2.45;;
44476;SDS011;30180;44.788;10.366;2023-08-08T09:49:05;4.45;;;2.15;;
44476;SDS011;30180;44.788;10.366;2023-08-08T09:51:33;7.35;;;3.00;;
44476;SDS011;30180;44.788;10.366;2023-08-08T09:54:03;5.60;;;2.60;;
44476;SDS011;30180;44.788;10.366;2023-08-08T09:56:33;6.13;;;2.28;;
44476;SDS011;30180;44.788;10.366;2023-08-08T09:59:02;7.32;;;2.13;;
44476;SDS011;30180;44.788;10.366;2023-08-08T10:04:01;6.93;;;2.10;;
44476;SDS011;30180;44.788;10.366;2023-08-08T10:06:30;6.43;;;2.83;;
44476;SDS011;30180;44.788;10.366;2023-08-08T10:08:59;4.88;;;1.98;;
44476;SDS011;30180;44.788;10.366;2023-08-08T10:11:30;4.70;;;2.38;;
44476;SDS011;30180;44.788;10.366;2023-08-08T10:14:01;5.47;;;2.40;;
44476;SDS011;30180;44.788;10.366;2023-08-08T10:16:31;4.78;;;2.47;;
44476;SDS011;30180;44.788;10.366;2023-08-08T10:19:01;7.55;;;2.88;;
44476;SDS011;30180;44.788;10.366;2023-08-08T10:24:02;6.70;;;2.92;;
44476;SDS011;30180;44.788;10.366;2023-08-08T10:26:33;5.50;;;2.95;;
44476;SDS011;30180;44.788;10.366;2023-08-08T10:29:18;5.97;;;3.08;;
44476;SDS011;30180;44.788;10.366;2023-08-08T10:31:53;6.20;;;2.92;;
44476;SDS011;30180;44.788;10.366;2023-08-08T10:34:36;5.80;;;3.30;;
44476;SDS011;30180;44.788;10.366;2023-08-08T10:37:05;5.63;;;2.55;;
44476;SDS011;30180;44.788;10.366;2023-08-08T10:39:37;7.82;;;2.63;;
44476;SDS011;30180;44.788;10.366;2023-08-08T10:42:18;5.65;;;2.55;;
44476;SDS011;30180;44.788;10.366;2023-08-08T10:44:50;4.55;;;2.45;;
44476;SDS011;30180;44.788;10.366;2023-08-08T10:47:21;4.00;;;2.30;;
44476;SDS011;30180;44.788;10.366;2023-08-08T10:49:57;5.18;;;2.08;;
44476;SDS011;30180;44.788;10.366;2023-08-08T10:52:27;3.70;;;1.65;;
44476;SDS011;30180;44.788;10.366;2023-08-08T10:54:56;6.78;;;2.13;;
44476;SDS011;30180;44.788;10.366;2023-08-08T10:57:26;5.28;;;1.90;;
44476;SDS011;30180;44.788;10.366;2023-08-08T10:59:55;9.32;;;1.83;;
44476;SDS011;30180;44.788;10.366;2023-08-08T11:02:23;6.38;;;1.92;;
44476;SDS011;30180;44.788;10.366;2023-08-08T11:04:52;2.45;;;1.40;;
44476;SDS011;30180;44.788;10.366;2023-08-08T11:09:50;3.30;;;1.40;;
44476;SDS011;30180;44.788;10.366;2023-08-08T11:12:19;2.97;;;1.50;;
44476;SDS011;30180;44.788;10.366;2023-08-08T11:14:51;4.17;;;1.93;;
44476;SDS011;30180;44.788;10.366;2023-08-08T11:17:19;3.33;;;1.40;;
44476;SDS011;30180;44.788;10.366;2023-08-08T11:19:47;3.28;;;1.70;;
44476;SDS011;30180;44.788;10.366;2023-08-08T11:22:16;4.65;;;1.90;;
44476;SDS011;30180;44.788;10.366;2023-08-08T11:24:44;4.55;;;1.85;;
44476;SDS011;30180;44.788;10.366;2023-08-08T11:27:12;3.05;;;1.67;;
44476;SDS011;30180;44.788;10.366;2023-08-08T11:30:03;5.10;;;2.00;;
44476;SDS011;30180;44.788;10.366;2023-08-08T11:32:35;2.70;;;1.45;;
44476;SDS011;30180;44.788;10.366;2023-08-08T11:35:04;3.15;;;1.60;;
44476;SDS011;30180;44.788;10.366;2023-08-08T11:37:33;2.58;;;1.45;;
44476;SDS011;30180;44.788;10.366;2023-08-08T11:40:02;2.42;;;1.27;;
44476;SDS011;30180;44.788;10.366;2023-08-08T11:42:32;3.30;;;1.33;;
44476;SDS011;30180;44.788;10.366;2023-08-08T11:45:00;2.95;;;1.40;;
44476;SDS011;30180;44.788;10.366;2023-08-08T11:47:32;2.90;;;1.40;;
44476;SDS011;30180;44.788;10.366;2023-08-08T11:50:03;3.33;;;1.42;;
44476;SDS011;30180;44.788;10.366;2023-08-08T11:52:34;2.63;;;1.48;;
44476;SDS011;30180;44.788;10.366;2023-08-08T11:55:05;3.92;;;1.50;;
44476;SDS011;30180;44.788;10.366;2023-08-08T11:57:35;3.15;;;1.25;;
44476;SDS011;30180;44.788;10.366;2023-08-08T12:00:08;2.97;;;1.30;;
44476;SDS011;30180;44.788;10.366;2023-08-08T12:02:39;2.85;;;1.30;;
44476;SDS011;30180;44.788;10.366;2023-08-08T12:05:09;1.92;;;1.13;;
44476;SDS011;30180;44.788;10.366;2023-08-08T12:07:38;3.65;;;1.40;;
44476;SDS011;30180;44.788;10.366;2023-08-08T12:10:13;4.32;;;1.40;;
44476;SDS011;30180;44.788;10.366;2023-08-08T12:12:43;2.67;;;1.25;;
44476;SDS011;30180;44.788;10.366;2023-08-08T12:15:14;3.67;;;1.40;;
44476;SDS011;30180;44.788;10.366;2023-08-08T12:17:42;3.00;;;1.42;;
44476;SDS011;30180;44.788;10.366;2023-08-08T12:20:11;3.28;;;1.30;;
44476;SDS011;30180;44.788;10.366;2023-08-08T12:22:39;3.50;;;1.30;;
44476;SDS011;30180;44.788;10.366;2023-08-08T12:25:08;2.15;;;1.13;;
44476;SDS011;30180;44.788;10.366;2023-08-08T12:27:36;3.38;;;1.80;;
44476;SDS011;30180;44.788;10.366;2023-08-08T12:30:06;2.90;;;1.20;;
44476;SDS011;30180;44.788;10.366;2023-08-08T12:32:36;2.28;;;1.15;;
44476;SDS011;30180;44.788;10.366;2023-08-08T12:35:05;2.83;;;1.30;;
44476;SDS011;30180;44.788;10.366;2023-08-08T12:37:34;3.22;;;1.20;;
44476;SDS011;30180;44.788;10.366;2023-08-08T12:40:02;2.70;;;1.02;;
44476;SDS011;30180;44.788;10.366;2023-08-08T12:42:33;2.95;;;1.17;;
44476;SDS011;30180;44.788;10.366;2023-08-08T12:45:02;2.55;;;1.45;;
44476;SDS011;30180;44.788;10.366;2023-08-08T12:47:31;2.67;;;1.13;;
44476;SDS011;30180;44.788;10.366;2023-08-08T12:50:04;2.80;;;1.25;;
44476;SDS011;30180;44.788;10.366;2023-08-08T12:52:34;5.05;;;1.17;;
44476;SDS011;30180;44.788;10.366;2023-08-08T12:55:04;5.65;;;1.45;;
44476;SDS011;30180;44.788;10.366;2023-08-08T12:57:35;1.85;;;1.10;;
44476;SDS011;30180;44.788;10.366;2023-08-08T13:00:04;3.72;;;0.95;;
44476;SDS011;30180;44.788;10.366;2023-08-08T13:02:35;2.83;;;1.10;;
44476;SDS011;30180;44.788;10.366;2023-08-08T13:05:06;3.03;;;0.83;;
44476;SDS011;30180;44.788;10.366;2023-08-08T13:07:36;2.08;;;1.02;;
44476;SDS011;30180;44.788;10.366;2023-08-08T13:10:05;1.88;;;0.98;;
44476;SDS011;30180;44.788;10.366;2023-08-08T13:12:34;2.45;;;1.00;;
44476;SDS011;30180;44.788;10.366;2023-08-08T13:15:02;2.00;;;1.00;;
44476;SDS011;30180;44.788;10.366;2023-08-08T13:17:34;2.38;;;1.02;;
44476;SDS011;30180;44.788;10.366;2023-08-08T13:20:03;3.95;;;0.88;;
44476;SDS011;30180;44.788;10.366;2023-08-08T13:22:33;3.15;;;0.80;;
44476;SDS011;30180;44.788;10.366;2023-08-08T13:25:02;1.95;;;0.90;;
44476;SDS011;30180;44.788;10.366;2023-08-08T13:27:31;1.90;;;0.97;;
44476;SDS011;30180;44.788;10.366;2023-08-08T13:30:00;1.08;;;0.70;;
44476;SDS011;30180;44.788;10.366;2023-08-08T13:32:28;1.83;;;0.90;;
44476;SDS011;30180;44.788;10.366;2023-08-08T13:34:57;2.40;;;0.85;;
44476;SDS011;30180;44.788;10.366;2023-08-08T13:37:25;2.22;;;0.90;;
44476;SDS011;30180;44.788;10.366;2023-08-08T13:39:55;3.38;;;0.98;;
44476;SDS011;30180;44.788;10.366;2023-08-08T13:42:24;2.23;;;1.10;;
44476;SDS011;30180;44.788;10.366;2023-08-08T13:44:52;1.52;;;0.80;;
44476;SDS011;30180;44.788;10.366;2023-08-08T13:47:20;1.88;;;0.82;;
44476;SDS011;30180;44.788;10.366;2023-08-08T13:49:49;2.35;;;0.93;;
44476;SDS011;30180;44.788;10.366;2023-08-08T13:52:18;1.10;;;0.80;;
44476;SDS011;30180;44.788;10.366;2023-08-08T13:54:46;2.42;;;0.98;;
44476;SDS011;30180;44.788;10.366;2023-08-08T13:57:16;1.70;;;0.80;;
44476;SDS011;30180;44.788;10.366;2023-08-08T13:59:44;2.00;;;1.00;;
44476;SDS011;30180;44.788;10.366;2023-08-08T14:02:13;1.90;;;0.80;;
44476;SDS011;30180;44.788;10.366;2023-08-08T14:04:43;1.38;;;0.88;;
44476;SDS011;30180;44.788;10.366;2023-08-08T14:07:12;2.00;;;0.77;;
44476;SDS011;30180;44.788;10.366;2023-08-08T14:09:40;2.00;;;0.68;;
44476;SDS011;30180;44.788;10.366;2023-08-08T14:12:08;2.20;;;0.73;;
44476;SDS011;30180;44.788;10.366;2023-08-08T14:14:38;5.38;;;0.98;;
44476;SDS011;30180;44.788;10.366;2023-08-08T14:17:06;3.60;;;0.90;;
44476;SDS011;30180;44.788;10.366;2023-08-08T14:19:35;2.30;;;0.82;;
44476;SDS011;30180;44.788;10.366;2023-08-08T14:22:03;2.33;;;0.80;;
44476;SDS011;30180;44.788;10.366;2023-08-08T14:24:33;4.07;;;1.00;;
44476;SDS011;30180;44.788;10.366;2023-08-08T14:27:02;3.47;;;0.75;;
44476;SDS011;30180;44.788;10.366;2023-08-08T14:29:30;2.00;;;0.70;;
44476;SDS011;30180;44.788;10.366;2023-08-08T14:32:00;5.28;;;0.77;;
44476;SDS011;30180;44.788;10.366;2023-08-08T14:34:29;3.95;;;0.95;;
44476;SDS011;30180;44.788;10.366;2023-08-08T14:36:58;1.48;;;0.77;;
44476;SDS011;30180;44.788;10.366;2023-08-08T14:39:28;3.00;;;1.10;;
44476;SDS011;30180;44.788;10.366;2023-08-08T14:41:56;2.40;;;0.90;;
44476;SDS011;30180;44.788;10.366;2023-08-08T14:44:25;1.35;;;0.80;;
44476;SDS011;30180;44.788;10.366;2023-08-08T14:46:54;3.05;;;0.90;;
44476;SDS011;30180;44.788;10.366;2023-08-08T14:49:24;1.48;;;0.70;;
44476;SDS011;30180;44.788;10.366;2023-08-08T14:51:53;2.33;;;0.90;;
44476;SDS011;30180;44.788;10.366;2023-08-08T14:54:22;2.25;;;0.95;;
44476;SDS011;30180;44.788;10.366;2023-08-08T14:56:50;2.00;;;0.75;;
44476;SDS011;30180;44.788;10.366;2023-08-08T14:59:18;1.50;;;0.77;;
44476;SDS011;30180;44.788;10.366;2023-08-08T15:01:46;2.17;;;1.05;;